Time;durP1;ratioP1;P1;durP2;ratioP2;P2;SDS_P1;SDS_P2;PMS_P1;PMS_P2;Temp;Humidity;BMP_temperature;BMP_pressure;BME280_temperature;BME280_humidity;BME280_pressure;Samples;Min_cycle;Max_cycle;Signal;HPM_P1;HPM_P2
2021/12/14 00:01:24;;;;;;;15.10;6.90;;;9.70;99.90;;;;;;5039216;28;20946;-55
2021/12/14 00:03:54;;;;;;;14.60;8.00;;;9.60;99.90;;;;;;5039291;28;20433;-56
2021/12/14 00:06:25;;;;;;;20.87;10.47;;;9.60;99.90;;;;;;5039783;28;20940;-51
2021/12/14 00:08:56;;;;;;;15.63;8.73;;;9.60;99.90;;;;;;5039588;28;20502;-55
2021/12/14 00:11:48;;;;;;;21.10;8.50;;;9.60;99.90;;;;;;5040019;28;20466;-49
2021/12/14 00:15:01;;;;;;;16.00;8.77;;;9.60;99.90;;;;;;5039688;28;20477;-54
2021/12/14 00:17:16;;;;;;;16.10;7.80;;;9.60;99.90;;;;;;5039529;28;20450;-51
2021/12/14 00:19:43;;;;;;;11.40;7.43;;;9.60;99.90;;;;;;5040238;28;20445;-52
2021/12/14 00:22:22;;;;;;;14.03;7.87;;;9.60;99.90;;;;;;5040059;28;20447;-52
2021/12/14 00:24:48;;;;;;;17.10;8.60;;;9.60;99.90;;;;;;5040786;28;20447;-54
2021/12/14 00:27:17;;;;;;;12.70;7.83;;;9.60;99.90;;;;;;5041669;28;20467;-51
2021/12/14 00:29:53;;;;;;;19.00;8.43;;;9.60;99.90;;;;;;5041669;28;20446;-54
2021/12/14 00:32:26;;;;;;;15.60;7.50;;;9.50;99.90;;;;;;5039427;28;20500;-54
2021/12/14 00:34:57;;;;;;;16.07;8.10;;;9.50;99.90;;;;;;5039487;28;20447;-53
2021/12/14 00:37:28;;;;;;;16.43;8.00;;;9.50;99.90;;;;;;5039644;28;20444;-53
2021/12/14 00:39:56;;;;;;;15.07;8.97;;;9.50;99.90;;;;;;5039224;28;20541;-54
2021/12/14 00:42:23;;;;;;;16.20;7.83;;;9.50;99.90;;;;;;5039315;28;20441;-55
2021/12/14 00:44:50;;;;;;;16.27;9.63;;;9.50;99.90;;;;;;5039718;28;20546;-54
2021/12/14 00:47:18;;;;;;;15.47;7.87;;;9.50;99.90;;;;;;5038966;28;20448;-55
2021/12/14 00:49:47;;;;;;;15.90;7.97;;;9.50;99.90;;;;;;5038691;28;20459;-54
2021/12/14 00:52:15;;;;;;;15.60;8.50;;;9.50;99.90;;;;;;5039441;28;20480;-55
2021/12/14 00:54:43;;;;;;;14.53;7.30;;;9.60;99.90;;;;;;5039347;28;20507;-54
2021/12/14 00:57:11;;;;;;;22.23;8.90;;;9.50;99.90;;;;;;5039084;28;20477;-49
2021/12/14 00:59:37;;;;;;;15.50;8.00;;;9.60;99.90;;;;;;5039105;28;20755;-54
2021/12/14 01:02:09;;;;;;;17.30;8.30;;;9.60;99.90;;;;;;5038874;28;20481;-54
2021/12/14 01:04:39;;;;;;;12.27;7.70;;;9.60;99.90;;;;;;5038738;28;20860;-54
2021/12/14 01:07:12;;;;;;;21.77;10.07;;;9.60;99.90;;;;;;5039025;28;20766;-52
2021/12/14 01:09:44;;;;;;;16.37;7.90;;;9.50;99.90;;;;;;5038937;28;20478;-50
2021/12/14 01:12:22;;;;;;;13.80;7.40;;;9.50;99.90;;;;;;5039265;28;20475;-52
2021/12/14 01:15:10;;;;;;;15.43;8.27;;;9.50;99.90;;;;;;5039188;28;20506;-53
2021/12/14 01:17:42;;;;;;;13.30;8.00;;;9.50;99.90;;;;;;5039205;28;20439;-55
2021/12/14 01:20:15;;;;;;;15.23;8.57;;;9.50;99.90;;;;;;5038748;28;20440;-52
2021/12/14 01:22:46;;;;;;;15.20;9.20;;;9.50;99.90;;;;;;5039046;28;20532;-52
2021/12/14 01:25:20;;;;;;;14.83;7.80;;;9.50;99.90;;;;;;5039081;28;20428;-52
2021/12/14 01:27:53;;;;;;;16.77;9.00;;;9.50;99.90;;;;;;5038483;28;20475;-52
2021/12/14 01:30:30;;;;;;;24.53;9.33;;;9.50;99.90;;;;;;5039481;28;20532;-55
2021/12/14 01:33:00;;;;;;;14.50;7.00;;;9.50;99.90;;;;;;5039575;28;20478;-54
2021/12/14 01:35:31;;;;;;;18.43;9.40;;;9.50;99.90;;;;;;5042975;28;20452;-53
2021/12/14 01:38:02;;;;;;;12.90;7.47;;;9.50;99.90;;;;;;5043043;28;20944;-53
2021/12/14 01:40:53;;;;;;;14.43;8.10;;;9.40;99.90;;;;;;5042334;28;20465;-53
2021/12/14 01:43:24;;;;;;;11.90;7.67;;;9.40;99.90;;;;;;5043447;28;20901;-52
2021/12/14 01:45:50;;;;;;;13.37;7.30;;;9.50;99.90;;;;;;5045314;28;20471;-54
2021/12/14 01:48:18;;;;;;;15.97;7.83;;;9.50;99.90;;;;;;5045219;28;20796;-53
2021/12/14 01:50:48;;;;;;;11.13;7.97;;;9.50;99.90;;;;;;5044511;28;20518;-53
2021/12/14 01:53:16;;;;;;;16.10;8.50;;;9.50;99.90;;;;;;5042861;28;20805;-56
2021/12/14 01:55:52;;;;;;;18.33;9.20;;;9.50;99.90;;;;;;5042745;28;20454;-53
2021/12/14 01:58:21;;;;;;;15.33;7.00;;;9.40;99.90;;;;;;5043085;28;20481;-50
2021/12/14 02:00:52;;;;;;;15.00;8.40;;;9.40;99.90;;;;;;5043478;28;20516;-53
2021/12/14 02:03:20;;;;;;;15.20;7.90;;;9.40;99.90;;;;;;5043508;28;20477;-51
2021/12/14 02:05:49;;;;;;;23.10;7.93;;;9.40;99.90;;;;;;5042861;28;20434;-53
2021/12/14 02:08:18;;;;;;;12.80;8.53;;;9.40;99.90;;;;;;5041789;28;20451;-51
2021/12/14 02:10:48;;;;;;;12.83;6.77;;;9.40;99.90;;;;;;5041711;28;20538;-50
2021/12/14 02:13:23;;;;;;;14.60;8.67;;;9.40;99.90;;;;;;5041723;28;20436;-53
2021/12/14 02:15:50;;;;;;;12.00;7.20;;;9.40;99.90;;;;;;5041423;28;20470;-53
2021/12/14 02:18:21;;;;;;;15.13;8.50;;;9.40;99.90;;;;;;5041575;28;20452;-56
2021/12/14 02:20:53;;;;;;;14.13;7.97;;;9.30;99.90;;;;;;5041366;28;20444;-53
2021/12/14 02:23:20;;;;;;;21.10;7.83;;;9.40;99.90;;;;;;5041487;28;20455;-55
2021/12/14 02:25:47;;;;;;;12.13;5.77;;;9.40;99.90;;;;;;5041920;28;20458;-53
2021/12/14 02:28:17;;;;;;;13.40;7.43;;;9.40;99.90;;;;;;5040947;28;20480;-53
2021/12/14 02:30:50;;;;;;;13.70;6.43;;;9.30;99.90;;;;;;5041708;28;20460;-53
2021/12/14 02:33:19;;;;;;;11.73;6.60;;;9.30;99.90;;;;;;5041244;28;20452;-52
2021/12/14 02:35:49;;;;;;;13.00;7.23;;;9.30;99.90;;;;;;5041250;28;20464;-53
2021/12/14 02:38:17;;;;;;;13.67;6.97;;;9.40;99.90;;;;;;5041080;28;20916;-53
2021/12/14 02:40:57;;;;;;;11.60;6.53;;;9.30;99.90;;;;;;5041238;28;20496;-54
2021/12/14 02:43:33;;;;;;;11.00;6.67;;;9.30;99.90;;;;;;5041472;28;20452;-53
2021/12/14 02:46:07;;;;;;;13.90;6.63;;;9.30;99.90;;;;;;5042436;28;20473;-54
2021/12/14 02:48:34;;;;;;;12.43;7.47;;;9.30;99.90;;;;;;5043425;28;20470;-50
2021/12/14 02:51:10;;;;;;;12.20;7.60;;;9.30;99.90;;;;;;5042687;28;20451;-52
2021/12/14 02:53:37;;;;;;;15.03;6.50;;;9.30;99.90;;;;;;5041669;28;20443;-53
2021/12/14 02:56:09;;;;;;;15.17;6.90;;;9.30;99.90;;;;;;5041091;28;20543;-53
2021/12/14 02:58:36;;;;;;;11.97;5.97;;;9.30;99.90;;;;;;5041076;28;20473;-55
2021/12/14 03:01:04;;;;;;;12.33;6.57;;;9.30;99.90;;;;;;5043029;28;20451;-54
2021/12/14 03:03:30;;;;;;;12.33;7.13;;;9.30;99.90;;;;;;5043153;28;21136;-51
2021/12/14 03:05:59;;;;;;;9.93;5.60;;;9.30;99.90;;;;;;5041619;28;20449;-51
2021/12/14 03:08:32;;;;;;;9.10;5.37;;;9.20;99.90;;;;;;5040999;28;20577;-54
2021/12/14 03:11:10;;;;;;;20.87;7.93;;;9.30;99.90;;;;;;5040583;28;20570;-53
2021/12/14 03:13:39;;;;;;;10.60;7.83;;;9.30;99.90;;;;;;5041133;28;20456;-53
2021/12/14 03:16:09;;;;;;;10.27;6.40;;;9.30;99.90;;;;;;5040889;28;20531;-54
2021/12/14 03:18:38;;;;;;;11.83;5.77;;;9.30;99.90;;;;;;5041140;28;20459;-55
2021/12/14 03:21:08;;;;;;;15.13;5.70;;;9.30;99.90;;;;;;5041115;28;20508;-53
2021/12/14 03:23:39;;;;;;;8.90;5.97;;;9.30;99.90;;;;;;5041128;28;20525;-55
2021/12/14 03:26:11;;;;;;;11.67;6.80;;;9.30;99.90;;;;;;5041016;28;20427;-49
2021/12/14 03:28:39;;;;;;;8.90;5.53;;;9.30;99.90;;;;;;5041356;28;20488;-53
2021/12/14 03:31:22;;;;;;;9.30;5.83;;;9.30;99.90;;;;;;5041048;28;20504;-52
2021/12/14 03:33:51;;;;;;;16.50;5.80;;;9.30;99.90;;;;;;5040611;28;20441;-54
2021/12/14 03:36:23;;;;;;;10.60;6.30;;;9.20;99.90;;;;;;5040344;28;20456;-55
2021/12/14 03:38:54;;;;;;;11.77;5.97;;;9.20;99.90;;;;;;5040131;28;20444;-53
2021/12/14 03:41:24;;;;;;;7.50;4.47;;;9.20;99.90;;;;;;5040035;28;20477;-52
2021/12/14 03:43:54;;;;;;;8.87;3.97;;;9.20;99.90;;;;;;5040182;28;20436;-54
2021/12/14 03:46:21;;;;;;;10.10;5.70;;;9.20;99.90;;;;;;5040119;28;20482;-52
2021/12/14 03:48:48;;;;;;;8.50;5.43;;;9.20;99.90;;;;;;5040340;28;20479;-54
2021/12/14 03:51:21;;;;;;;10.30;6.33;;;9.20;99.90;;;;;;5039762;28;20458;-51
2021/12/14 03:53:51;;;;;;;12.00;5.33;;;9.20;99.90;;;;;;5040302;28;20480;-54
2021/12/14 03:56:20;;;;;;;10.00;5.37;;;9.20;99.90;;;;;;5040274;28;20513;-50
2021/12/14 03:58:48;;;;;;;11.70;6.37;;;9.20;99.90;;;;;;5040501;28;20834;-51
2021/12/14 04:01:18;;;;;;;11.77;5.57;;;9.20;99.90;;;;;;5040529;28;20527;-52
2021/12/14 04:03:48;;;;;;;11.60;6.30;;;9.10;99.90;;;;;;5040791;28;20453;-54
2021/12/14 04:06:19;;;;;;;11.43;5.60;;;9.10;99.90;;;;;;5040074;28;20478;-54
2021/12/14 04:08:47;;;;;;;13.83;6.90;;;9.10;99.90;;;;;;5040218;28;20526;-53
2021/12/14 04:11:18;;;;;;;14.23;5.90;;;9.10;99.90;;;;;;5040316;28;20471;-55
2021/12/14 04:13:50;;;;;;;11.73;5.93;;;9.10;99.90;;;;;;5040720;28;20448;-49
2021/12/14 04:16:19;;;;;;;9.80;4.90;;;9.10;99.90;;;;;;5040124;28;20438;-53
2021/12/14 04:18:47;;;;;;;9.57;5.50;;;9.10;99.90;;;;;;5042239;28;20458;-55
2021/12/14 04:21:14;;;;;;;14.27;6.50;;;9.00;99.90;;;;;;5042318;28;20438;-50
2021/12/14 04:23:44;;;;;;;12.63;5.50;;;9.10;99.90;;;;;;5040091;28;20476;-53
2021/12/14 04:26:15;;;;;;;10.97;5.30;;;9.10;99.90;;;;;;5039839;28;20431;-54
2021/12/14 04:28:45;;;;;;;12.33;5.73;;;9.10;99.90;;;;;;5039416;28;20971;-53
2021/12/14 04:31:12;;;;;;;11.33;7.67;;;9.10;99.90;;;;;;5039186;28;20973;-51
2021/12/14 04:33:42;;;;;;;10.10;5.73;;;9.10;99.90;;;;;;5039609;28;20487;-53
2021/12/14 04:36:16;;;;;;;9.83;5.97;;;9.10;99.90;;;;;;5040997;28;20475;-53
2021/12/14 04:38:50;;;;;;;7.43;4.63;;;9.10;99.90;;;;;;5041590;28;20433;-53
2021/12/14 04:52:24;;;;;;;12.33;7.00;;;9.10;99.90;;;;;;5049008;28;20490;-51
2021/12/14 04:54:56;;;;;;;8.60;4.73;;;9.00;99.90;;;;;;5048598;28;20497;-54
2021/12/14 04:57:28;;;;;;;11.60;6.40;;;9.00;99.90;;;;;;5047988;28;20435;-53
2021/12/14 05:00:01;;;;;;;15.40;6.60;;;9.00;99.90;;;;;;5047042;28;20469;-51
2021/12/14 05:02:30;;;;;;;10.83;6.47;;;9.00;99.90;;;;;;5047659;28;20502;-52
2021/12/14 05:04:58;;;;;;;11.70;6.40;;;9.10;99.90;;;;;;5047649;28;20450;-55
2021/12/14 05:07:44;;;;;;;15.47;6.83;;;9.00;99.90;;;;;;5048253;28;20437;-49
2021/12/14 05:10:16;;;;;;;14.57;6.63;;;9.00;99.90;;;;;;5052435;28;20489;-53
2021/12/14 05:12:45;;;;;;;12.73;6.30;;;9.00;99.90;;;;;;5052469;28;20464;-53
2021/12/14 05:15:14;;;;;;;11.23;5.87;;;9.00;99.90;;;;;;5045118;28;20938;-53
2021/12/14 05:17:43;;;;;;;11.07;5.40;;;9.00;99.90;;;;;;5042116;28;20431;-53
2021/12/14 05:20:12;;;;;;;12.87;6.63;;;9.00;99.90;;;;;;5039681;28;20475;-54
2021/12/14 05:22:42;;;;;;;10.80;4.97;;;8.90;99.90;;;;;;5041093;28;20818;-54
2021/12/14 05:25:12;;;;;;;9.20;5.50;;;8.90;99.90;;;;;;5041356;28;20452;-53
2021/12/14 05:27:45;;;;;;;11.57;4.60;;;8.90;99.90;;;;;;5042490;28;20461;-53
2021/12/14 05:30:17;;;;;;;10.57;6.13;;;8.90;99.90;;;;;;5045483;28;20429;-54
2021/12/14 05:32:45;;;;;;;13.87;6.73;;;8.80;99.90;;;;;;5050799;28;20529;-49
2021/12/14 05:35:16;;;;;;;15.37;6.20;;;8.80;99.90;;;;;;5052519;28;20480;-54
2021/12/14 05:37:47;;;;;;;13.63;6.03;;;8.80;99.90;;;;;;5053028;28;20429;-55
2021/12/14 05:40:24;;;;;;;11.03;7.00;;;8.80;99.90;;;;;;5052096;28;20524;-56
2021/12/14 05:43:07;;;;;;;9.97;5.20;;;8.80;99.90;;;;;;5052062;28;20526;-53
2021/12/14 05:45:39;;;;;;;12.30;5.30;;;8.80;99.90;;;;;;5052089;28;20563;-54
2021/12/14 05:48:06;;;;;;;10.60;5.33;;;8.80;99.90;;;;;;5052054;28;20433;-55
2021/12/14 05:50:38;;;;;;;10.97;5.33;;;8.80;99.90;;;;;;5052006;28;20468;-52
2021/12/14 05:53:05;;;;;;;11.10;6.50;;;8.80;99.90;;;;;;5052329;28;20444;-53
2021/12/14 05:55:35;;;;;;;11.63;6.50;;;8.80;99.90;;;;;;5051849;28;20466;-55
2021/12/14 05:58:05;;;;;;;10.33;5.37;;;8.80;99.90;;;;;;5043702;28;20442;-56
2021/12/14 06:00:32;;;;;;;8.40;5.30;;;8.80;99.90;;;;;;5044025;28;20522;-55
2021/12/14 06:02:59;;;;;;;11.37;5.60;;;8.80;99.90;;;;;;5051186;28;20485;-55
2021/12/14 06:05:30;;;;;;;11.30;5.70;;;8.80;99.90;;;;;;5051168;28;20454;-54
2021/12/14 06:07:57;;;;;;;8.43;5.50;;;8.70;99.90;;;;;;5039359;28;20430;-54
2021/12/14 06:10:26;;;;;;;11.50;5.70;;;8.70;99.90;;;;;;5044994;28;20441;-53
2021/12/14 06:12:53;;;;;;;13.07;6.20;;;8.70;99.90;;;;;;5048922;28;20482;-52
2021/12/14 06:15:27;;;;;;;10.90;5.80;;;8.70;99.90;;;;;;5043471;28;20826;-54
2021/12/14 06:17:54;;;;;;;9.53;5.30;;;8.80;99.90;;;;;;5043504;28;20444;-55
2021/12/14 06:20:24;;;;;;;10.20;5.70;;;8.70;99.90;;;;;;5042396;28;20447;-51
2021/12/14 06:22:52;;;;;;;10.90;6.00;;;8.70;99.90;;;;;;5043546;28;20462;-53
2021/12/14 06:25:22;;;;;;;8.37;5.07;;;8.70;99.90;;;;;;5043349;28;20546;-53
2021/12/14 06:27:49;;;;;;;9.07;5.53;;;8.70;99.90;;;;;;5043348;28;20467;-56
2021/12/14 06:30:19;;;;;;;10.23;5.60;;;8.70;99.90;;;;;;5042927;28;20465;-54
2021/12/14 06:32:49;;;;;;;7.93;5.30;;;8.60;99.90;;;;;;5043407;28;20546;-53
2021/12/14 06:35:20;;;;;;;13.87;6.80;;;8.70;99.90;;;;;;5043975;28;20451;-52
2021/12/14 06:38:23;;;;;;;9.83;5.50;;;8.70;99.90;;;;;;5043308;28;20429;-56
2021/12/14 06:40:56;;;;;;;9.30;6.00;;;8.70;99.90;;;;;;5042387;28;20800;-53
2021/12/14 06:43:26;;;;;;;8.57;6.23;;;8.70;99.90;;;;;;5043690;28;20426;-53
2021/12/14 06:45:56;;;;;;;9.77;6.30;;;8.70;99.90;;;;;;5042692;28;20447;-54
2021/12/14 06:48:28;;;;;;;12.00;6.10;;;8.80;99.90;;;;;;5043956;28;20434;-52
2021/12/14 06:50:58;;;;;;;10.00;6.97;;;8.70;99.90;;;;;;5045111;28;20443;-54
2021/12/14 06:53:25;;;;;;;14.03;7.13;;;8.80;99.90;;;;;;5044001;28;20480;-54
2021/12/14 06:55:54;;;;;;;15.37;5.90;;;8.80;99.90;;;;;;5042605;28;20905;-55
2021/12/14 06:58:23;;;;;;;10.83;5.63;;;8.80;99.90;;;;;;5042274;28;20445;-54
2021/12/14 07:00:53;;;;;;;13.30;5.77;;;8.80;99.90;;;;;;5041758;28;20445;-55
2021/12/14 07:03:20;;;;;;;10.30;5.20;;;8.80;99.90;;;;;;5042082;28;20424;-51
2021/12/14 07:05:50;;;;;;;6.97;5.63;;;8.80;99.90;;;;;;5042078;28;20441;-56
2021/12/14 07:08:24;;;;;;;9.63;5.50;;;8.80;99.90;;;;;;5041596;28;20429;-56
2021/12/14 07:10:52;;;;;;;10.20;5.17;;;8.80;99.90;;;;;;5041608;28;20432;-54
2021/12/14 07:13:24;;;;;;;10.07;6.40;;;8.80;99.90;;;;;;5042240;28;20468;-55
2021/12/14 07:15:51;;;;;;;13.10;6.37;;;8.80;99.90;;;;;;5042017;28;20504;-54
2021/12/14 07:18:25;;;;;;;13.47;6.90;;;8.80;99.90;;;;;;5041668;28;20504;-54
2021/12/14 07:20:53;;;;;;;8.90;5.57;;;8.80;99.90;;;;;;5042323;28;20438;-56
2021/12/14 07:23:26;;;;;;;9.50;5.10;;;8.90;99.90;;;;;;5043350;28;20463;-55
2021/12/14 07:25:59;;;;;;;10.27;5.37;;;8.80;99.90;;;;;;5042637;28;20458;-53
2021/12/14 07:28:31;;;;;;;7.13;4.60;;;8.80;99.90;;;;;;5043153;28;20443;-54
2021/12/14 07:31:01;;;;;;;8.37;4.63;;;8.80;99.90;;;;;;5042982;28;20807;-51
2021/12/14 07:33:29;;;;;;;11.93;6.17;;;8.80;99.90;;;;;;5042128;28;20476;-53
2021/12/14 07:36:01;;;;;;;14.73;5.23;;;8.80;99.90;;;;;;5043144;28;20451;-50
2021/12/14 07:38:36;;;;;;;11.27;6.20;;;8.80;99.90;;;;;;5042634;28;20442;-55
2021/12/14 07:41:08;;;;;;;11.93;5.20;;;8.70;99.90;;;;;;5040910;28;20937;-55
2021/12/14 07:43:38;;;;;;;13.30;7.10;;;8.70;99.90;;;;;;5041653;28;20460;-54
2021/12/14 07:46:19;;;;;;;10.03;6.13;;;8.70;99.90;;;;;;5040782;28;20513;-50
2021/12/14 07:48:49;;;;;;;10.93;5.13;;;8.70;99.90;;;;;;5041725;28;20444;-56
2021/12/14 07:51:20;;;;;;;11.20;6.20;;;8.70;99.90;;;;;;5041963;28;20431;-55
2021/12/14 07:53:49;;;;;;;8.30;5.20;;;8.70;99.90;;;;;;5041047;28;20468;-50
2021/12/14 07:56:33;;;;;;;12.60;7.27;;;8.80;99.90;;;;;;5040656;28;20481;-56
2021/12/14 07:59:01;;;;;;;8.17;5.57;;;8.70;99.90;;;;;;5041425;28;20444;-53
2021/12/14 08:01:28;;;;;;;11.87;6.60;;;8.70;99.90;;;;;;5041010;28;20452;-53
2021/12/14 08:04:04;;;;;;;13.33;7.43;;;8.70;99.90;;;;;;5040992;28;20509;-54
2021/12/14 08:06:46;;;;;;;10.90;5.60;;;8.70;99.90;;;;;;5043051;28;20436;-56
2021/12/14 08:09:31;;;;;;;9.70;5.77;;;8.70;99.90;;;;;;5042308;28;20463;-54
2021/12/14 08:11:58;;;;;;;8.27;5.60;;;8.70;99.90;;;;;;5040627;28;20475;-54
2021/12/14 08:14:28;;;;;;;10.47;5.90;;;8.70;99.90;;;;;;5040596;28;20933;-54
2021/12/14 08:16:58;;;;;;;13.47;5.90;;;8.70;99.90;;;;;;5041098;28;20475;-52
2021/12/14 08:19:31;;;;;;;18.10;6.80;;;8.70;99.90;;;;;;5040624;28;20505;-54
2021/12/14 08:22:03;;;;;;;9.40;5.27;;;8.70;99.90;;;;;;5040845;28;20500;-55
2021/12/14 08:24:30;;;;;;;12.73;6.50;;;8.70;99.90;;;;;;5041402;28;20422;-52
2021/12/14 08:27:01;;;;;;;12.53;5.80;;;8.70;99.90;;;;;;5041052;28;20988;-53
2021/12/14 08:29:33;;;;;;;10.47;6.43;;;8.70;99.90;;;;;;5040986;28;20462;-56
2021/12/14 08:32:07;;;;;;;9.20;5.67;;;8.80;99.90;;;;;;5040398;28;20544;-54
2021/12/14 08:34:36;;;;;;;11.33;6.27;;;8.80;99.90;;;;;;5040878;28;20517;-54
2021/12/14 08:37:09;;;;;;;10.63;7.43;;;8.80;99.90;;;;;;5040135;28;20470;-54
2021/12/14 08:39:42;;;;;;;15.50;6.83;;;8.90;99.90;;;;;;5040447;28;20451;-55
2021/12/14 08:42:14;;;;;;;15.20;6.20;;;8.90;99.90;;;;;;5039955;28;20475;-54
2021/12/14 08:44:51;;;;;;;11.93;6.47;;;8.80;99.90;;;;;;5040086;28;20443;-55
2021/12/14 08:47:26;;;;;;;11.33;5.73;;;8.90;99.90;;;;;;5040794;28;20502;-51
2021/12/14 08:49:54;;;;;;;10.80;5.40;;;8.90;99.90;;;;;;5040797;28;20444;-54
2021/12/14 08:52:24;;;;;;;13.47;5.60;;;8.90;99.90;;;;;;5040312;28;20489;-51
2021/12/14 08:54:51;;;;;;;11.60;6.47;;;8.90;99.90;;;;;;5040454;28;20477;-53
2021/12/14 08:57:23;;;;;;;9.73;5.00;;;8.90;99.90;;;;;;5040235;28;20465;-52
2021/12/14 08:59:53;;;;;;;9.67;5.23;;;8.90;99.90;;;;;;5040667;28;20441;-54
2021/12/14 09:02:22;;;;;;;11.00;5.23;;;8.90;99.90;;;;;;5040531;28;20821;-51
2021/12/14 09:04:53;;;;;;;9.20;4.70;;;8.90;99.90;;;;;;5041003;28;20439;-52
2021/12/14 09:07:24;;;;;;;9.50;5.37;;;8.90;99.90;;;;;;5041632;28;20474;-53
2021/12/14 09:09:54;;;;;;;10.77;5.90;;;8.90;99.90;;;;;;5041910;28;20476;-52
2021/12/14 09:12:24;;;;;;;9.13;5.77;;;8.90;99.90;;;;;;5042590;28;20464;-55
2021/12/14 09:14:53;;;;;;;11.77;6.43;;;8.90;99.90;;;;;;5042066;28;20508;-53
2021/12/14 09:17:22;;;;;;;11.67;5.77;;;8.90;99.90;;;;;;5041648;28;20463;-53
2021/12/14 09:19:53;;;;;;;10.87;6.17;;;8.90;99.90;;;;;;5042155;28;20517;-52
2021/12/14 09:22:26;;;;;;;11.87;7.50;;;9.00;99.90;;;;;;5042722;28;20472;-51
2021/12/14 09:24:54;;;;;;;16.07;8.80;;;9.00;99.90;;;;;;5042353;28;20915;-53
2021/12/14 09:27:24;;;;;;;11.60;5.30;;;9.00;99.90;;;;;;5041499;28;20480;-55
2021/12/14 09:29:51;;;;;;;9.70;6.30;;;9.00;99.90;;;;;;5040608;28;20786;-53
2021/12/14 09:32:28;;;;;;;10.67;6.17;;;9.00;99.90;;;;;;5040502;28;20473;-53
2021/12/14 09:34:56;;;;;;;15.57;6.50;;;9.00;99.90;;;;;;5040667;28;20473;-54
2021/12/14 09:37:26;;;;;;;10.90;5.80;;;9.00;99.90;;;;;;5040011;28;20518;-55
2021/12/14 09:39:57;;;;;;;11.10;6.13;;;9.00;99.90;;;;;;5039618;28;20463;-52
2021/12/14 09:42:27;;;;;;;10.97;5.67;;;9.00;99.90;;;;;;5040112;28;20474;-53
2021/12/14 09:44:56;;;;;;;8.80;5.90;;;9.10;99.90;;;;;;5040173;28;20435;-54
2021/12/14 09:47:29;;;;;;;9.00;5.80;;;9.10;99.90;;;;;;5040456;28;20477;-52
2021/12/14 09:49:59;;;;;;;9.17;5.73;;;9.10;99.90;;;;;;5040591;28;20518;-55
2021/12/14 09:52:30;;;;;;;12.47;6.30;;;9.10;99.90;;;;;;5039855;28;20566;-56
2021/12/14 09:54:59;;;;;;;10.33;6.33;;;9.10;99.90;;;;;;5042050;28;20548;-54
2021/12/14 09:57:31;;;;;;;10.93;6.20;;;9.00;99.90;;;;;;5043386;28;20944;-52
2021/12/14 10:00:01;;;;;;;9.17;5.47;;;9.10;99.90;;;;;;5043433;28;20473;-55
2021/12/14 10:02:31;;;;;;;7.73;5.10;;;9.00;99.90;;;;;;5043660;28;20482;-56
2021/12/14 10:05:03;;;;;;;8.83;5.80;;;9.00;99.90;;;;;;5043626;28;20618;-51
2021/12/14 10:07:32;;;;;;;9.10;5.43;;;9.00;99.90;;;;;;5044300;28;20467;-51
2021/12/14 10:10:00;;;;;;;8.30;5.30;;;9.00;99.90;;;;;;5044265;28;20431;-55
2021/12/14 10:12:49;;;;;;;10.53;5.23;;;9.00;99.90;;;;;;5043812;28;20459;-51
2021/12/14 10:15:21;;;;;;;10.23;5.20;;;9.00;99.90;;;;;;5044028;28;20482;-53
2021/12/14 10:17:49;;;;;;;9.73;5.00;;;9.00;99.90;;;;;;5044492;28;20875;-53
2021/12/14 10:20:23;;;;;;;7.70;4.60;;;9.00;99.90;;;;;;5044704;28;20436;-54
2021/12/14 10:22:52;;;;;;;9.63;5.50;;;9.00;99.90;;;;;;5044182;28;20469;-55
2021/12/14 10:25:21;;;;;;;8.90;5.70;;;9.00;99.90;;;;;;5043138;28;20440;-53
2021/12/14 10:27:49;;;;;;;7.60;5.37;;;9.10;99.90;;;;;;5043038;28;20477;-55
2021/12/14 10:30:21;;;;;;;10.00;5.67;;;9.10;99.90;;;;;;5042547;28;20832;-54
2021/12/14 10:32:49;;;;;;;9.73;5.90;;;9.00;99.90;;;;;;5042435;28;20482;-54
2021/12/14 10:35:23;;;;;;;10.93;6.47;;;9.10;99.90;;;;;;5043421;28;20466;-53
2021/12/14 10:37:56;;;;;;;11.13;6.67;;;9.10;99.90;;;;;;5044173;28;20506;-54
2021/12/14 10:43:15;;;;;;;7.60;5.30;;;9.20;99.90;;;;;;5043029;28;20455;-55
2021/12/14 10:45:48;;;;;;;9.13;4.63;;;9.20;99.90;;;;;;5042618;28;20426;-52
2021/12/14 10:48:16;;;;;;;9.03;5.63;;;9.20;99.90;;;;;;5042300;28;20466;-53
2021/12/14 10:50:43;;;;;;;11.47;5.90;;;9.20;99.90;;;;;;5042424;28;20457;-55
2021/12/14 10:53:13;;;;;;;13.27;6.60;;;9.20;99.90;;;;;;5042601;28;20510;-54
2021/12/14 10:55:45;;;;;;;14.77;6.60;;;9.20;99.90;;;;;;5041999;28;20468;-54
2021/12/14 10:58:14;;;;;;;12.80;6.53;;;9.20;99.90;;;;;;5042023;28;20480;-54
2021/12/14 11:00:48;;;;;;;11.17;5.13;;;9.30;99.90;;;;;;5042032;28;20448;-56
2021/12/14 11:03:19;;;;;;;11.80;7.23;;;9.30;99.90;;;;;;5041718;28;20470;-54
2021/12/14 11:05:52;;;;;;;11.43;6.10;;;9.30;99.90;;;;;;5041225;28;20435;-56
2021/12/14 11:11:05;;;;;;;10.10;6.27;;;9.30;99.90;;;;;;5039084;28;20528;-54
2021/12/14 11:13:41;;;;;;;10.63;6.20;;;9.40;99.90;;;;;;5041605;28;20539;-56
2021/12/14 11:16:15;;;;;;;11.73;6.37;;;9.30;99.90;;;;;;5040992;28;20823;-56
2021/12/14 11:18:44;;;;;;;10.03;5.70;;;9.30;99.90;;;;;;5041541;28;20566;-55
2021/12/14 11:21:14;;;;;;;7.60;4.80;;;9.30;99.90;;;;;;5041660;28;20452;-54
2021/12/14 11:23:47;;;;;;;13.50;5.30;;;9.30;99.90;;;;;;5042085;28;20817;-55
2021/12/14 11:26:19;;;;;;;8.50;4.97;;;9.30;99.90;;;;;;5041993;28;20442;-53
2021/12/14 11:28:50;;;;;;;10.23;6.57;;;9.30;99.90;;;;;;5040996;28;20469;-56
2021/12/14 11:31:20;;;;;;;9.97;6.00;;;9.30;99.90;;;;;;5041355;28;20480;-55
2021/12/14 11:33:49;;;;;;;9.60;6.63;;;9.30;99.90;;;;;;5041435;28;20463;-55
2021/12/14 11:36:19;;;;;;;11.73;6.23;;;9.40;99.90;;;;;;5041240;28;20444;-55
2021/12/14 11:38:53;;;;;;;13.00;7.47;;;9.40;99.90;;;;;;5040875;28;20468;-53
2021/12/14 11:41:29;;;;;;;7.50;4.70;;;9.50;99.90;;;;;;5040826;28;20533;-55
2021/12/14 11:44:00;;;;;;;9.03;5.70;;;9.50;99.90;;;;;;5041212;28;20469;-53
2021/12/14 11:46:30;;;;;;;9.03;5.57;;;9.50;99.90;;;;;;5041362;28;20455;-53
2021/12/14 11:48:59;;;;;;;16.27;7.93;;;9.50;99.90;;;;;;5041551;28;20968;-50
2021/12/14 11:51:28;;;;;;;11.00;4.97;;;9.50;99.90;;;;;;5041204;28;20450;-52
2021/12/14 11:53:58;;;;;;;7.73;5.23;;;9.50;99.90;;;;;;5042369;28;20534;-55
2021/12/14 11:56:27;;;;;;;9.33;5.00;;;9.60;99.90;;;;;;5042818;28;20448;-54
2021/12/14 11:59:01;;;;;;;11.03;6.70;;;9.60;99.90;;;;;;5041086;28;20471;-53
2021/12/14 12:01:32;;;;;;;9.60;5.03;;;9.70;99.90;;;;;;5040424;28;20542;-55
2021/12/14 12:04:01;;;;;;;12.73;5.30;;;9.70;99.90;;;;;;5040387;28;20464;-56
2021/12/14 12:09:32;;;;;;;9.07;6.20;;;9.80;99.90;;;;;;5038906;28;20469;-55
2021/12/14 12:12:14;;;;;;;11.33;5.67;;;9.80;99.90;;;;;;5040449;28;20435;-52
2021/12/14 12:14:45;;;;;;;10.73;6.33;;;9.80;99.90;;;;;;5040425;28;20493;-52
2021/12/14 12:17:18;;;;;;;6.50;4.50;;;9.90;99.90;;;;;;5040546;28;20455;-56
2021/12/14 12:20:10;;;;;;;8.93;5.37;;;9.90;99.90;;;;;;5039540;28;20475;-54
2021/12/14 12:22:40;;;;;;;10.43;4.70;;;9.90;99.90;;;;;;5040038;28;20928;-55
2021/12/14 12:25:10;;;;;;;11.73;5.07;;;9.90;99.90;;;;;;5040166;28;20467;-55
2021/12/14 12:27:45;;;;;;;10.47;5.70;;;10.00;99.90;;;;;;5039981;28;20502;-54
2021/12/14 12:30:33;;;;;;;7.57;4.70;;;10.10;99.90;;;;;;5040378;28;20476;-53
2021/12/14 12:33:18;;;;;;;10.03;6.20;;;10.20;99.90;;;;;;5030219;28;20451;-53
2021/12/14 12:35:49;;;;;;;11.20;6.30;;;10.10;99.90;;;;;;5037132;28;20483;-53
2021/12/14 12:38:34;;;;;;;8.47;5.30;;;10.10;99.90;;;;;;5040039;28;20762;-53
2021/12/14 12:41:11;;;;;;;9.57;4.87;;;10.10;99.90;;;;;;5040023;28;20460;-55
2021/12/14 12:43:44;;;;;;;9.30;6.33;;;10.10;99.90;;;;;;5040099;28;20455;-54
2021/12/14 12:46:21;;;;;;;8.27;4.40;;;10.10;99.90;;;;;;5040335;28;20502;-54
2021/12/14 12:48:58;;;;;;;8.57;4.67;;;9.90;99.90;;;;;;5040224;28;20482;-53
2021/12/14 12:52:07;;;;;;;9.77;5.30;;;9.90;99.90;;;;;;5040477;28;20436;-53
2021/12/14 12:54:43;;;;;;;11.07;6.10;;;9.90;99.90;;;;;;5032619;28;20496;-55
2021/12/14 12:57:16;;;;;;;10.90;6.50;;;9.80;99.90;;;;;;5041746;28;20451;-56
2021/12/14 12:59:49;;;;;;;9.63;5.43;;;9.80;99.90;;;;;;5041441;28;20475;-55
2021/12/14 13:02:21;;;;;;;15.83;7.80;;;9.70;99.90;;;;;;5041570;28;20444;-52
2021/12/14 13:04:51;;;;;;;11.00;5.23;;;9.80;99.90;;;;;;5041456;28;20498;-51
2021/12/14 13:07:33;;;;;;;10.60;4.90;;;9.70;99.90;;;;;;5042201;28;20455;-54
2021/12/14 13:10:16;;;;;;;7.97;6.03;;;9.60;99.90;;;;;;5043813;28;20471;-51
2021/12/14 13:13:00;;;;;;;8.20;5.17;;;9.70;99.90;;;;;;5044304;28;20444;-55
2021/12/14 13:15:57;;;;;;;7.27;4.57;;;9.60;99.90;;;;;;5042547;28;20579;-54
2021/12/14 13:18:30;;;;;;;7.80;4.40;;;9.60;99.90;;;;;;5040808;28;20428;-55
2021/12/14 13:21:00;;;;;;;9.83;5.07;;;9.60;99.90;;;;;;5040115;28;20483;-54
2021/12/14 13:23:44;;;;;;;10.73;6.47;;;9.60;99.90;;;;;;5039806;28;20461;-54
2021/12/14 13:26:27;;;;;;;11.40;6.07;;;9.60;99.90;;;;;;5040647;28;20464;-55
2021/12/14 13:28:59;;;;;;;13.80;5.20;;;9.60;99.90;;;;;;5040162;28;20427;-53
2021/12/14 13:31:28;;;;;;;11.63;5.40;;;9.60;99.90;;;;;;5043834;28;20488;-54
2021/12/14 13:33:55;;;;;;;11.67;5.70;;;9.60;99.90;;;;;;5043548;28;20510;-53